createdAt,value
2019-05-28T00:00:24.489Z,0.00
2019-05-28T00:01:24.471Z,0.00
2019-05-28T00:02:24.448Z,0.00
2019-05-28T00:03:24.432Z,0.00
2019-05-28T00:04:24.407Z,0.00
2019-05-28T00:05:24.384Z,0.00
2019-05-28T00:06:24.365Z,0.00
2019-05-28T00:07:25.111Z,0.00
2019-05-28T00:08:24.323Z,0.00
2019-05-28T00:09:24.318Z,0.00
2019-05-28T00:10:24.280Z,0.00
2019-05-28T00:11:24.261Z,0.00
2019-05-28T00:12:24.239Z,0.00
2019-05-28T00:13:24.220Z,0.00
2019-05-28T00:14:24.197Z,0.00
2019-05-28T00:15:24.175Z,0.00
2019-05-28T00:16:24.155Z,0.00
2019-05-28T00:17:24.133Z,0.00
2019-05-28T00:18:24.125Z,0.00
2019-05-28T00:19:24.090Z,4.00
2019-05-28T00:20:24.072Z,0.00
2019-05-28T00:21:24.049Z,4.00
2019-05-28T00:22:24.028Z,0.00
2019-05-28T00:23:24.008Z,0.00
2019-05-28T00:24:23.987Z,0.00
2019-05-28T00:25:25.855Z,0.00
2019-05-28T00:26:23.944Z,0.00
2019-05-28T00:27:23.923Z,0.00
2019-05-28T00:28:24.653Z,0.00
2019-05-28T00:29:23.881Z,0.00
2019-05-28T00:30:23.863Z,0.00
2019-05-28T00:31:23.839Z,0.00
2019-05-28T00:32:23.820Z,0.00
2019-05-28T00:33:23.796Z,0.00
2019-05-28T00:34:23.780Z,0.00
2019-05-28T00:35:23.761Z,0.00
2019-05-28T00:36:23.733Z,0.00
2019-05-28T00:37:23.813Z,0.00
2019-05-28T00:38:23.691Z,0.00
2019-05-28T00:39:24.421Z,0.00
2019-05-28T00:40:23.651Z,0.00
2019-05-28T00:41:23.628Z,0.00
2019-05-28T00:42:23.606Z,0.00
2019-05-28T00:43:23.585Z,0.00
2019-05-28T00:44:23.564Z,0.00
2019-05-28T00:45:23.542Z,0.00
2019-05-28T00:46:23.521Z,0.00
2019-05-28T00:47:23.504Z,0.00
2019-05-28T00:48:23.534Z,0.00
2019-05-28T00:49:23.456Z,0.00
2019-05-28T00:50:23.436Z,0.00
2019-05-28T00:51:23.418Z,0.00
2019-05-28T00:52:23.395Z,0.00
2019-05-28T00:53:23.372Z,0.00
2019-05-28T00:54:23.351Z,0.00
2019-05-28T00:55:23.331Z,0.00
2019-05-28T00:56:23.310Z,0.00
2019-05-28T00:57:23.287Z,4.00
2019-05-28T00:58:23.265Z,0.00
2019-05-28T00:59:23.246Z,0.00
2019-05-28T01:00:36.692Z,0.00
2019-05-28T01:01:23.204Z,0.00
2019-05-28T01:02:23.183Z,0.00
2019-05-28T01:03:23.162Z,0.00
2019-05-28T01:04:23.141Z,0.00
2019-05-28T01:05:23.119Z,0.00
2019-05-28T01:06:23.098Z,0.00
2019-05-28T01:07:23.077Z,0.00
2019-05-28T01:08:23.056Z,0.00
2019-05-28T01:09:23.034Z,0.00
2019-05-28T01:10:23.013Z,0.00
2019-05-28T01:11:22.993Z,0.00
2019-05-28T01:12:22.973Z,0.00
2019-05-28T01:13:22.950Z,0.00
2019-05-28T01:14:22.930Z,0.00
2019-05-28T01:15:22.908Z,0.00
2019-05-28T01:16:22.887Z,0.00
2019-05-28T01:17:22.865Z,0.00
2019-05-28T01:18:22.844Z,0.00
2019-05-28T01:19:22.825Z,0.00
2019-05-28T01:20:22.805Z,0.00
2019-05-28T01:21:22.782Z,0.00
2019-05-28T01:22:22.760Z,0.00
2019-05-28T01:23:22.741Z,0.00
2019-05-28T01:24:22.717Z,0.00
2019-05-28T01:25:22.697Z,0.00
2019-05-28T01:26:23.428Z,0.00
2019-05-28T01:27:22.653Z,0.00
2019-05-28T01:28:22.633Z,0.00
2019-05-28T01:29:22.610Z,0.00
2019-05-28T01:30:22.589Z,0.00
2019-05-28T01:31:22.571Z,0.00
2019-05-28T01:32:22.547Z,0.00
2019-05-28T01:33:22.526Z,0.00
2019-05-28T01:34:22.504Z,0.00
2019-05-28T01:35:22.483Z,0.00
2019-05-28T01:36:22.467Z,0.00
2019-05-28T01:37:22.439Z,0.00
2019-05-28T01:38:22.418Z,0.00
2019-05-28T01:39:22.396Z,0.00
2019-05-28T01:40:23.287Z,0.00
2019-05-28T01:41:22.353Z,4.00
2019-05-28T01:42:22.332Z,0.00
2019-05-28T01:43:22.310Z,0.00
2019-05-28T01:44:22.289Z,0.00
2019-05-28T01:45:22.266Z,0.00
2019-05-28T01:46:22.246Z,0.00
2019-05-28T01:47:22.224Z,0.00
2019-05-28T01:48:22.203Z,0.00
2019-05-28T01:49:22.184Z,0.00
2019-05-28T01:50:22.158Z,0.00
2019-05-28T01:51:22.136Z,0.00
2019-05-28T01:52:22.115Z,0.00
2019-05-28T01:53:22.094Z,0.00
2019-05-28T01:54:22.072Z,0.00
2019-05-28T01:55:22.050Z,0.00
2019-05-28T01:56:22.031Z,0.00
2019-05-28T01:57:22.007Z,0.00
2019-05-28T01:58:21.985Z,0.00
2019-05-28T01:59:24.216Z,0.00
2019-05-28T02:00:21.942Z,0.00
2019-05-28T02:01:21.923Z,0.00
2019-05-28T02:02:21.900Z,0.00
2019-05-28T02:03:21.876Z,0.00
2019-05-28T02:04:21.862Z,0.00
2019-05-28T02:05:22.587Z,0.00
2019-05-28T02:06:21.812Z,0.00
2019-05-28T02:07:21.790Z,0.00
2019-05-28T02:08:21.768Z,0.00
2019-05-28T02:09:21.744Z,0.00
2019-05-28T02:10:21.732Z,0.00
2019-05-28T02:11:21.703Z,0.00
2019-05-28T02:12:21.682Z,0.00
2019-05-28T02:13:21.658Z,0.00
2019-05-28T02:14:21.640Z,0.00
2019-05-28T02:15:21.616Z,0.00
2019-05-28T02:16:21.594Z,0.00
2019-05-28T02:17:21.571Z,0.00
2019-05-28T02:18:21.552Z,0.00
2019-05-28T02:19:21.529Z,0.00
2019-05-28T02:20:21.508Z,0.00
2019-05-28T02:21:21.484Z,4.00
2019-05-28T02:22:21.462Z,0.00
2019-05-28T02:23:21.441Z,4.00
2019-05-28T02:24:21.421Z,0.00
2019-05-28T02:25:21.398Z,0.00
2019-05-28T02:26:21.375Z,0.00
2019-05-28T02:27:21.355Z,0.00
2019-05-28T02:28:21.333Z,0.00
2019-05-28T02:29:21.311Z,0.00
2019-05-28T02:30:21.288Z,0.00
2019-05-28T02:31:27.624Z,0.00
2019-05-28T02:32:21.245Z,0.00
2019-05-28T02:33:21.222Z,0.00
2019-05-28T02:34:21.200Z,4.00
2019-05-28T02:35:21.179Z,0.00
2019-05-28T02:36:21.157Z,0.00
2019-05-28T02:37:21.191Z,0.00
2019-05-28T02:38:21.112Z,0.00
2019-05-28T02:39:21.092Z,0.00
2019-05-28T02:40:21.070Z,0.00
2019-05-28T02:41:21.050Z,0.00
2019-05-28T02:42:21.028Z,4.00
2019-05-28T02:43:21.040Z,0.00
2019-05-28T02:44:20.983Z,4.00
2019-05-28T02:45:20.960Z,4.00
2019-05-28T02:46:20.939Z,4.00
2019-05-28T02:47:20.918Z,4.00
2019-05-28T02:48:20.896Z,4.00
2019-05-28T02:49:20.915Z,4.00
2019-05-28T02:50:20.851Z,4.00
2019-05-28T02:51:20.838Z,4.00
2019-05-28T02:52:20.814Z,4.00
2019-05-28T02:53:20.787Z,4.00
2019-05-28T02:54:20.774Z,4.00
2019-05-28T02:55:20.746Z,4.00
2019-05-28T02:56:20.724Z,4.00
2019-05-28T02:57:20.703Z,4.00
2019-05-28T02:58:20.680Z,4.00
2019-05-28T02:59:20.657Z,4.00
2019-05-28T03:00:20.636Z,4.00
2019-05-28T03:01:20.614Z,4.00
2019-05-28T03:02:20.592Z,4.00
2019-05-28T03:03:20.572Z,4.00
2019-05-28T03:04:20.549Z,4.00
2019-05-28T03:05:20.527Z,4.00
2019-05-28T03:06:20.505Z,4.00
2019-05-28T03:07:20.483Z,4.00
2019-05-28T03:08:20.462Z,4.00
2019-05-28T03:09:20.440Z,4.00
2019-05-28T03:10:20.417Z,8.00
2019-05-28T03:11:20.398Z,8.00
2019-05-28T03:12:20.375Z,8.00
2019-05-28T03:13:20.354Z,8.00
2019-05-28T03:14:20.331Z,8.00
2019-05-28T03:15:20.309Z,8.00
2019-05-28T03:16:20.288Z,8.00
2019-05-28T03:17:20.266Z,12.00
2019-05-28T03:18:20.244Z,12.00
2019-05-28T03:19:20.228Z,16.00
2019-05-28T03:20:20.201Z,12.00
2019-05-28T03:21:20.180Z,12.00
2019-05-28T03:22:20.157Z,12.00
2019-05-28T03:23:20.163Z,16.00
2019-05-28T03:24:20.117Z,20.00
2019-05-28T03:25:20.146Z,24.00
2019-05-28T03:26:23.443Z,28.00
2019-05-28T03:27:20.047Z,28.00
2019-05-28T03:28:20.027Z,28.00
2019-05-28T03:29:20.004Z,32.00
2019-05-28T03:30:19.983Z,32.00
2019-05-28T03:31:19.962Z,36.00
2019-05-28T03:32:19.940Z,40.00
2019-05-28T03:33:19.918Z,48.00
2019-05-28T03:34:19.895Z,52.00
2019-05-28T03:35:19.876Z,56.00
2019-05-28T03:36:19.860Z,64.00
2019-05-28T03:37:19.830Z,68.00
2019-05-28T03:38:19.808Z,72.00
2019-05-28T03:39:19.786Z,76.00
2019-05-28T03:40:19.765Z,76.00
2019-05-28T03:41:19.742Z,76.00
2019-05-28T03:42:19.726Z,84.00
2019-05-28T03:43:19.699Z,92.00
2019-05-28T03:44:19.677Z,104.00
2019-05-28T03:45:19.654Z,116.00
2019-05-28T03:46:19.638Z,124.00
2019-05-28T03:47:19.611Z,128.00
2019-05-28T03:48:19.589Z,136.00
2019-05-28T03:49:19.567Z,156.00
2019-05-28T03:50:19.545Z,180.00
2019-05-28T03:51:19.523Z,196.00
2019-05-28T03:52:19.502Z,212.00
2019-05-28T03:53:19.480Z,240.00
2019-05-28T03:54:19.463Z,268.00
2019-05-28T03:55:19.436Z,296.00
2019-05-28T03:56:19.414Z,328.00
2019-05-28T03:57:19.392Z,356.00
2019-05-28T03:58:19.371Z,376.00
2019-05-28T03:59:19.346Z,388.00
2019-05-28T04:00:19.329Z,416.00
2019-05-28T04:01:19.304Z,444.00
2019-05-28T04:02:23.541Z,468.00
2019-05-28T04:03:19.259Z,512.00
2019-05-28T04:04:19.240Z,536.00
2019-05-28T04:05:19.215Z,580.00
2019-05-28T04:06:19.195Z,616.00
2019-05-28T04:07:19.172Z,652.00
2019-05-28T04:08:19.151Z,652.00
2019-05-28T04:09:19.127Z,600.00
2019-05-28T04:10:19.106Z,600.00
2019-05-28T04:11:19.837Z,628.00
2019-05-28T04:12:19.067Z,652.00
2019-05-28T04:13:19.040Z,604.00
2019-05-28T04:14:19.028Z,600.00
2019-05-28T04:15:18.997Z,700.00
2019-05-28T04:16:18.976Z,796.00
2019-05-28T04:17:18.951Z,808.00
2019-05-28T04:18:18.930Z,860.00
2019-05-28T04:19:18.907Z,828.00
2019-05-28T04:20:18.939Z,836.00
2019-05-28T04:21:18.864Z,820.00
2019-05-28T04:22:18.843Z,888.00
2019-05-28T04:23:18.820Z,952.00
2019-05-28T04:24:18.800Z,1000.00
2019-05-28T04:25:18.777Z,1044.00
2019-05-28T04:26:18.755Z,1016.00
2019-05-28T04:27:18.733Z,1068.00
2019-05-28T04:28:18.711Z,1044.00
2019-05-28T04:29:18.689Z,1040.00
2019-05-28T04:30:18.674Z,1000.00
2019-05-28T04:31:18.646Z,1024.00
2019-05-28T04:32:18.623Z,968.00
2019-05-28T04:33:18.601Z,936.00
2019-05-28T04:34:18.578Z,812.00
2019-05-28T04:35:18.556Z,820.00
2019-05-28T04:36:18.535Z,728.00
2019-05-28T04:37:18.516Z,716.00
2019-05-28T04:38:19.250Z,744.00
2019-05-28T04:39:18.473Z,848.00
2019-05-28T04:40:18.446Z,800.00
2019-05-28T04:41:18.424Z,792.00
2019-05-28T04:42:18.402Z,808.00
2019-05-28T04:43:18.381Z,824.00
2019-05-28T04:44:18.358Z,760.00
2019-05-28T04:45:18.335Z,828.00
2019-05-28T04:46:18.314Z,1020.00
2019-05-28T04:47:18.291Z,1296.00
2019-05-28T04:48:18.273Z,1488.00
2019-05-28T04:49:18.248Z,1620.00
2019-05-28T04:50:18.224Z,1992.00
2019-05-28T04:51:18.203Z,2168.00
2019-05-28T04:52:18.181Z,2172.00
2019-05-28T04:53:18.157Z,2264.00
2019-05-28T04:54:18.136Z,2296.00
2019-05-28T04:55:18.116Z,2312.00
2019-05-28T04:56:18.096Z,2328.00
2019-05-28T04:57:18.075Z,2360.00
2019-05-28T04:58:18.047Z,2400.00
2019-05-28T04:59:18.026Z,2404.00
2019-05-28T05:00:18.006Z,2416.00
2019-05-28T05:01:17.986Z,2408.00
2019-05-28T05:02:17.958Z,2376.00
2019-05-28T05:03:17.935Z,2356.00
2019-05-28T05:04:17.914Z,2328.00
2019-05-28T05:05:17.894Z,2388.00
2019-05-28T05:06:17.869Z,2432.00
2019-05-28T05:07:17.847Z,2432.00
2019-05-28T05:08:17.825Z,2400.00
2019-05-28T05:09:17.802Z,2368.00
2019-05-28T05:10:19.251Z,2300.00
2019-05-28T05:11:17.758Z,2224.00
2019-05-28T05:12:17.736Z,2168.00
2019-05-28T05:13:17.714Z,2164.00
2019-05-28T05:14:17.692Z,2204.00
2019-05-28T05:15:17.670Z,2280.00
2019-05-28T05:16:17.648Z,2364.00
2019-05-28T05:17:17.627Z,2452.00
2019-05-28T05:18:17.738Z,2508.00
2019-05-28T05:19:17.582Z,2564.00
2019-05-28T05:20:17.559Z,2656.00
2019-05-28T05:21:17.536Z,2768.00
2019-05-28T05:22:17.518Z,2896.00
2019-05-28T05:23:17.493Z,3000.00
2019-05-28T05:24:17.474Z,3104.00
2019-05-28T05:25:17.464Z,3204.00
2019-05-28T05:26:17.427Z,3268.00
2019-05-28T05:27:17.407Z,3376.00
2019-05-28T05:28:17.383Z,3520.00
2019-05-28T05:29:17.361Z,3640.00
2019-05-28T05:30:17.341Z,3720.00
2019-05-28T05:31:17.316Z,3768.00
2019-05-28T05:32:17.295Z,3824.00
2019-05-28T05:33:20.428Z,3896.00
2019-05-28T05:34:17.250Z,3964.00
2019-05-28T05:35:17.228Z,4020.00
2019-05-28T05:36:17.207Z,4048.00
2019-05-28T05:37:17.183Z,4040.00
2019-05-28T05:38:17.161Z,3988.00
2019-05-28T05:39:17.188Z,3888.00
2019-05-28T05:40:20.120Z,3764.00
2019-05-28T05:41:17.094Z,3612.00
2019-05-28T05:42:17.072Z,3476.00
2019-05-28T05:43:17.052Z,3340.00
2019-05-28T05:44:17.031Z,3212.00
2019-05-28T05:45:17.008Z,3108.00
2019-05-28T05:46:16.985Z,3024.00
2019-05-28T05:47:16.963Z,2940.00
2019-05-28T05:48:16.941Z,2836.00
2019-05-28T05:49:16.919Z,2724.00
2019-05-28T05:50:16.897Z,2572.00
2019-05-28T05:51:16.876Z,2448.00
2019-05-28T05:52:16.854Z,2368.00
2019-05-28T05:53:16.837Z,2344.00
2019-05-28T05:54:16.835Z,2328.00
2019-05-28T05:55:16.797Z,2300.00
2019-05-28T05:56:16.768Z,2252.00
2019-05-28T05:57:16.747Z,2196.00
2019-05-28T05:58:16.723Z,2148.00
2019-05-28T05:59:16.703Z,2092.00
2019-05-28T06:00:16.678Z,2092.00
2019-05-28T06:01:16.693Z,2084.00
2019-05-28T06:02:16.633Z,2084.00
2019-05-28T06:03:16.612Z,2092.00
2019-05-28T06:04:16.594Z,2120.00
2019-05-28T06:05:16.568Z,2152.00
2019-05-28T06:06:16.546Z,2172.00
2019-05-28T06:07:16.527Z,2196.00
2019-05-28T06:08:16.518Z,2240.00
2019-05-28T06:09:16.481Z,2296.00
2019-05-28T06:10:16.470Z,2352.00
2019-05-28T06:11:16.439Z,2412.00
2019-05-28T06:12:21.669Z,2484.00
2019-05-28T06:13:16.391Z,2568.00
2019-05-28T06:14:16.369Z,2660.00
2019-05-28T06:15:16.353Z,2760.00
2019-05-28T06:16:16.325Z,2864.00
2019-05-28T06:17:16.318Z,2968.00
2019-05-28T06:18:16.282Z,3076.00
2019-05-28T06:19:16.295Z,3208.00
2019-05-28T06:20:16.238Z,3332.00
2019-05-28T06:21:18.909Z,3452.00
2019-05-28T06:22:16.192Z,3576.00
2019-05-28T06:23:16.171Z,3720.00
2019-05-28T06:24:16.150Z,3852.00
2019-05-28T06:25:16.139Z,3972.00
2019-05-28T06:26:16.109Z,4096.00
2019-05-28T06:27:19.257Z,4256.00
2019-05-28T06:28:16.061Z,4424.00
2019-05-28T06:29:16.038Z,4572.00
2019-05-28T06:30:16.016Z,4692.00
2019-05-28T06:31:15.995Z,4776.00
2019-05-28T06:32:15.972Z,4808.00
2019-05-28T06:33:15.951Z,4928.00
2019-05-28T06:34:15.930Z,5080.00
2019-05-28T06:35:15.907Z,5216.00
2019-05-28T06:36:15.886Z,5328.00
2019-05-28T06:37:15.866Z,5388.00
2019-05-28T06:38:15.854Z,5380.00
2019-05-28T06:39:18.071Z,5424.00
2019-05-28T06:40:15.797Z,5448.00
2019-05-28T06:41:15.774Z,5556.00
2019-05-28T06:42:15.751Z,5580.00
2019-05-28T06:43:15.736Z,5616.00
2019-05-28T06:44:15.711Z,5624.00
2019-05-28T06:45:15.737Z,5748.00
2019-05-28T06:46:15.666Z,5872.00
2019-05-28T06:47:15.644Z,5996.00
2019-05-28T06:48:15.623Z,6148.00
2019-05-28T06:49:15.601Z,6148.00
2019-05-28T06:50:15.580Z,6164.00
2019-05-28T06:51:15.559Z,6160.00
2019-05-28T06:52:15.538Z,6268.00
2019-05-28T06:53:15.514Z,6404.00
2019-05-28T06:54:15.493Z,6572.00
2019-05-28T06:55:15.477Z,6696.00
2019-05-28T06:56:15.451Z,6752.00
2019-05-28T06:57:22.887Z,6812.00
2019-05-28T06:58:15.408Z,7080.00
2019-05-28T06:59:15.417Z,7372.00
2019-05-28T07:00:15.392Z,7340.00
2019-05-28T07:01:15.343Z,7268.00
2019-05-28T07:02:15.321Z,7236.00
2019-05-28T07:03:15.304Z,7152.00
2019-05-28T07:04:29.773Z,6872.00
2019-05-28T07:05:15.257Z,6772.00
2019-05-28T07:06:15.236Z,6700.00
2019-05-28T07:07:15.215Z,6844.00
2019-05-28T07:08:15.194Z,6996.00
2019-05-28T07:09:15.172Z,7128.00
2019-05-28T07:10:15.153Z,7024.00
2019-05-28T07:11:15.131Z,7008.00
2019-05-28T07:12:17.958Z,6924.00
2019-05-28T07:13:15.088Z,6728.00
2019-05-28T07:14:15.067Z,6748.00
2019-05-28T07:15:15.047Z,6732.00
2019-05-28T07:16:15.025Z,6796.00
2019-05-28T07:17:15.003Z,6916.00
2019-05-28T07:18:14.983Z,6900.00
2019-05-28T07:19:24.623Z,6660.00
2019-05-28T07:20:14.956Z,6684.00
2019-05-28T07:21:14.919Z,6204.00
2019-05-28T07:22:14.898Z,6404.00
2019-05-28T07:23:14.877Z,6940.00
2019-05-28T07:24:14.879Z,6964.00
2019-05-28T07:25:14.837Z,6596.00
2019-05-28T07:26:14.813Z,6852.00
2019-05-28T07:27:15.544Z,7380.00
2019-05-28T07:28:14.772Z,7660.00
2019-05-28T07:29:14.750Z,7948.00
2019-05-28T07:30:14.730Z,8188.00
2019-05-28T07:31:14.708Z,8420.00
2019-05-28T07:32:14.689Z,8592.00
2019-05-28T07:33:14.666Z,8772.00
2019-05-28T07:34:29.757Z,8912.00
2019-05-28T07:35:14.624Z,9048.00
2019-05-28T07:36:14.606Z,9184.00
2019-05-28T07:37:14.583Z,9840.00
2019-05-28T07:38:14.562Z,10476.00
2019-05-28T07:39:14.542Z,11292.00
2019-05-28T07:40:30.557Z,11576.00
2019-05-28T07:41:14.506Z,11344.00
2019-05-28T07:42:14.481Z,10948.00
2019-05-28T07:43:14.459Z,10896.00
2019-05-28T07:44:14.437Z,10852.00
2019-05-28T07:45:14.421Z,10420.00
2019-05-28T07:46:14.395Z,9492.00
2019-05-28T07:47:14.375Z,8784.00
2019-05-28T07:48:14.354Z,8776.00
2019-05-28T07:49:14.338Z,8380.00
2019-05-28T07:50:14.313Z,6624.00
2019-05-28T07:51:14.293Z,5488.00
2019-05-28T07:52:14.271Z,5644.00
2019-05-28T07:53:14.252Z,6084.00
2019-05-28T07:54:14.232Z,6356.00
2019-05-28T07:55:14.212Z,6480.00
2019-05-28T07:56:14.188Z,7056.00
2019-05-28T07:57:14.167Z,7716.00
2019-05-28T07:58:14.146Z,7948.00
2019-05-28T07:59:14.125Z,7508.00
2019-05-28T08:00:14.104Z,7680.00
2019-05-28T08:01:14.083Z,7588.00
2019-05-28T08:02:14.062Z,6720.00
2019-05-28T08:03:14.041Z,5808.00
2019-05-28T08:04:14.022Z,5532.00
2019-05-28T08:05:17.038Z,3996.00
2019-05-28T08:06:13.978Z,2852.00
2019-05-28T08:07:13.957Z,2360.00
2019-05-28T08:08:13.942Z,2288.00
2019-05-28T08:09:13.914Z,2088.00
2019-05-28T08:10:13.894Z,1992.00
2019-05-28T08:11:13.924Z,1964.00
2019-05-28T08:12:14.171Z,2068.00
2019-05-28T08:13:13.893Z,2388.00
2019-05-28T08:14:13.809Z,2540.00
2019-05-28T08:15:13.786Z,2504.00
2019-05-28T08:16:18.662Z,2896.00
2019-05-28T08:17:13.746Z,3636.00
2019-05-28T08:18:13.722Z,3980.00
2019-05-28T08:19:13.699Z,3768.00
2019-05-28T08:20:13.678Z,3732.00
2019-05-28T08:21:13.655Z,3808.00
2019-05-28T08:22:13.949Z,3596.00
2019-05-28T08:23:13.616Z,3528.00
2019-05-28T08:24:13.590Z,3740.00
2019-05-28T08:25:27.533Z,4060.00
2019-05-28T08:26:13.545Z,4252.00
2019-05-28T08:27:13.523Z,4208.00
2019-05-28T08:28:20.042Z,4296.00
2019-05-28T08:29:13.476Z,4044.00
2019-05-28T08:30:13.458Z,4160.00
2019-05-28T08:31:17.261Z,4172.00
2019-05-28T08:32:13.411Z,4560.00
2019-05-28T08:33:13.388Z,5116.00
2019-05-28T08:34:13.370Z,5052.00
2019-05-28T08:35:13.343Z,5300.00
2019-05-28T08:36:13.321Z,5260.00
2019-05-28T08:37:13.298Z,5380.00
2019-05-28T08:38:13.276Z,5224.00
2019-05-28T08:39:13.259Z,5596.00
2019-05-28T08:40:13.232Z,5724.00
2019-05-28T08:41:13.207Z,6120.00
2019-05-28T08:42:13.185Z,6076.00
2019-05-28T08:43:13.165Z,5676.00
2019-05-28T08:44:13.140Z,5836.00
2019-05-28T08:45:13.150Z,5792.00
2019-05-28T08:46:13.096Z,5924.00
2019-05-28T08:47:13.079Z,5724.00
2019-05-28T08:48:13.051Z,6208.00
2019-05-28T08:49:13.025Z,6016.00
2019-05-28T08:50:13.003Z,5720.00
2019-05-28T08:51:12.988Z,4920.00
2019-05-28T08:52:12.957Z,5404.00
2019-05-28T08:53:12.934Z,5160.00
2019-05-28T08:54:12.913Z,5328.00
2019-05-28T08:55:12.888Z,5160.00
2019-05-28T08:56:12.866Z,5352.00
2019-05-28T08:57:12.845Z,5252.00
2019-05-28T08:58:13.571Z,4912.00
2019-05-28T08:59:12.800Z,5200.00
2019-05-28T09:00:12.902Z,5132.00
2019-05-28T09:01:12.921Z,5232.00
2019-05-28T09:02:27.089Z,5080.00
2019-05-28T09:03:12.797Z,5240.00
2019-05-28T09:04:12.684Z,5428.00
2019-05-28T09:05:25.967Z,5504.00
2019-05-28T09:06:12.636Z,5696.00
2019-05-28T09:07:12.614Z,5868.00
2019-05-28T09:08:12.594Z,6064.00
2019-05-28T09:09:12.568Z,6268.00
2019-05-28T09:10:12.544Z,6300.00
2019-05-28T09:11:12.989Z,6328.00
2019-05-28T09:12:12.500Z,6364.00
2019-05-28T09:13:12.475Z,6372.00
2019-05-28T09:14:12.476Z,6428.00
2019-05-28T09:15:12.446Z,6212.00
2019-05-28T09:16:12.406Z,6540.00
2019-05-28T09:17:12.384Z,6652.00
2019-05-28T09:18:12.383Z,6776.00
2019-05-28T09:19:12.339Z,6860.00
2019-05-28T09:20:12.318Z,6896.00
2019-05-28T09:21:12.299Z,7264.00
2019-05-28T09:22:24.987Z,7424.00
2019-05-28T09:23:12.247Z,7728.00
2019-05-28T09:24:12.237Z,7992.00
2019-05-28T09:25:15.203Z,8104.00
2019-05-28T09:26:12.184Z,8168.00
2019-05-28T09:27:12.155Z,8112.00
2019-05-28T09:28:28.579Z,8052.00
2019-05-28T09:29:12.108Z,8024.00
2019-05-28T09:30:12.085Z,7948.00
2019-05-28T09:31:12.063Z,7648.00
2019-05-28T09:32:12.040Z,7836.00
2019-05-28T09:33:12.159Z,7588.00
2019-05-28T09:34:11.993Z,7172.00
2019-05-28T09:35:11.973Z,7080.00
2019-05-28T09:36:11.952Z,6768.00
2019-05-28T09:37:11.923Z,6100.00
2019-05-28T09:38:11.901Z,4956.00
2019-05-28T09:39:11.877Z,6120.00
2019-05-28T09:40:11.858Z,5868.00
2019-05-28T09:41:11.836Z,6276.00
2019-05-28T09:42:12.558Z,6396.00
2019-05-28T09:43:11.788Z,6576.00
2019-05-28T09:44:11.764Z,6652.00
2019-05-28T09:45:22.376Z,6928.00
2019-05-28T09:46:11.715Z,6808.00
2019-05-28T09:47:11.692Z,6816.00
2019-05-28T09:48:12.091Z,6816.00
2019-05-28T09:49:11.645Z,6932.00
2019-05-28T09:50:29.424Z,7044.00
2019-05-28T09:51:11.599Z,7008.00
2019-05-28T09:52:11.576Z,6992.00
2019-05-28T09:53:11.552Z,7084.00
2019-05-28T09:54:11.531Z,7064.00
2019-05-28T09:55:11.507Z,7048.00
2019-05-28T09:56:11.491Z,7304.00
2019-05-28T09:57:11.461Z,7096.00
2019-05-28T09:58:11.437Z,7060.00
2019-05-28T09:59:11.414Z,6768.00
2019-05-28T10:00:14.817Z,6692.00
2019-05-28T10:01:11.366Z,7404.00
2019-05-28T10:02:11.345Z,7228.00
2019-05-28T10:03:11.323Z,6896.00
2019-05-28T10:04:13.553Z,7100.00
2019-05-28T10:05:11.288Z,7184.00
2019-05-28T10:06:17.070Z,7296.00
2019-05-28T10:07:11.243Z,7364.00
2019-05-28T10:08:11.206Z,7308.00
2019-05-28T10:09:11.281Z,7116.00
2019-05-28T10:10:11.163Z,7148.00
2019-05-28T10:11:11.136Z,7320.00
2019-05-28T10:12:11.113Z,7432.00
2019-05-28T10:13:11.100Z,7512.00
2019-05-28T10:14:11.066Z,7564.00
2019-05-28T10:15:11.044Z,7672.00
2019-05-28T10:16:11.081Z,7768.00
2019-05-28T10:17:10.998Z,7916.00
2019-05-28T10:18:10.977Z,7984.00
2019-05-28T10:19:10.956Z,8012.00
2019-05-28T10:20:10.930Z,8048.00
2019-05-28T10:21:18.128Z,8128.00
2019-05-28T10:22:10.883Z,8156.00
2019-05-28T10:23:10.867Z,8164.00
2019-05-28T10:24:10.840Z,8260.00
2019-05-28T10:25:10.813Z,8588.00
2019-05-28T10:26:10.792Z,8404.00
2019-05-28T10:27:10.770Z,7796.00
2019-05-28T10:28:10.746Z,7328.00
2019-05-28T10:29:10.728Z,7200.00
2019-05-28T10:30:10.699Z,7572.00
2019-05-28T10:31:10.675Z,7908.00
2019-05-28T10:32:10.654Z,8636.00
2019-05-28T10:33:10.631Z,9472.00
2019-05-28T10:34:10.610Z,9920.00
2019-05-28T10:35:10.608Z,10288.00
2019-05-28T10:36:10.563Z,10652.00
2019-05-28T10:37:10.542Z,10712.00
2019-05-28T10:38:15.231Z,10684.00
2019-05-28T10:39:10.497Z,10708.00
2019-05-28T10:40:10.488Z,10700.00
2019-05-28T10:41:10.451Z,10812.00
2019-05-28T10:42:10.429Z,10684.00
2019-05-28T10:43:10.409Z,10336.00
2019-05-28T10:44:10.386Z,9824.00
2019-05-28T10:45:10.385Z,9360.00
2019-05-28T10:46:10.465Z,9072.00
2019-05-28T10:47:10.319Z,9096.00
2019-05-28T10:48:10.297Z,9236.00
2019-05-28T10:49:10.276Z,9656.00
2019-05-28T10:50:10.253Z,9328.00
2019-05-28T10:51:10.232Z,9760.00
2019-05-28T10:52:10.210Z,10168.00
2019-05-28T10:53:10.187Z,10196.00
2019-05-28T10:54:10.165Z,9928.00
2019-05-28T10:55:10.144Z,9948.00
2019-05-28T10:56:10.248Z,10092.00
2019-05-28T10:57:10.100Z,10392.00
2019-05-28T10:58:10.085Z,10876.00
2019-05-28T10:59:10.057Z,11332.00
2019-05-28T11:00:10.035Z,11704.00
2019-05-28T11:01:10.013Z,11952.00
2019-05-28T11:02:09.992Z,12140.00
2019-05-28T11:03:09.975Z,12244.00
2019-05-28T11:04:11.452Z,12312.00
2019-05-28T11:05:09.929Z,12388.00
2019-05-28T11:06:09.906Z,12484.00
2019-05-28T11:07:09.884Z,12580.00
2019-05-28T11:08:09.863Z,12648.00
2019-05-28T11:09:09.846Z,12564.00
2019-05-28T11:10:23.607Z,12592.00
2019-05-28T11:11:09.805Z,12896.00
2019-05-28T11:12:09.778Z,12936.00
2019-05-28T11:13:09.756Z,13104.00
2019-05-28T11:14:09.734Z,13328.00
2019-05-28T11:15:09.716Z,13540.00
2019-05-28T11:16:11.194Z,13828.00
2019-05-28T11:17:09.680Z,14164.00
2019-05-28T11:18:09.653Z,14320.00
2019-05-28T11:19:09.629Z,14292.00
2019-05-28T11:20:09.608Z,14840.00
2019-05-28T11:21:10.236Z,15728.00
2019-05-28T11:22:09.566Z,15936.00
2019-05-28T11:23:09.557Z,16052.00
2019-05-28T11:24:09.527Z,16216.00
2019-05-28T11:25:09.504Z,16000.00
2019-05-28T11:26:09.483Z,15728.00
2019-05-28T11:27:09.469Z,16212.00
2019-05-28T11:28:09.447Z,17280.00
2019-05-28T11:29:09.421Z,17440.00
2019-05-28T11:30:09.409Z,17216.00
2019-05-28T11:31:09.382Z,17088.00
2019-05-28T11:32:09.363Z,17120.00
2019-05-28T11:33:11.594Z,17216.00
2019-05-28T11:34:09.320Z,17568.00
2019-05-28T11:35:09.327Z,17696.00
2019-05-28T11:36:09.282Z,17728.00
2019-05-28T11:37:10.179Z,17408.00
2019-05-28T11:38:09.242Z,17088.00
2019-05-28T11:39:10.724Z,17088.00
2019-05-28T11:40:09.203Z,16960.00
2019-05-28T11:41:09.199Z,16296.00
2019-05-28T11:42:09.164Z,16068.00
2019-05-28T11:43:09.143Z,16640.00
2019-05-28T11:44:09.125Z,16992.00
2019-05-28T11:45:10.925Z,17440.00
2019-05-28T11:46:09.085Z,17760.00
2019-05-28T11:47:09.066Z,17984.00
2019-05-28T11:48:09.068Z,18080.00
2019-05-28T11:49:09.027Z,17984.00
2019-05-28T11:50:09.012Z,17856.00
2019-05-28T11:51:11.248Z,17728.00
2019-05-28T11:52:08.970Z,17632.00
2019-05-28T11:53:08.951Z,17728.00
2019-05-28T11:54:08.932Z,17952.00
2019-05-28T11:55:08.913Z,18048.00
2019-05-28T11:56:08.895Z,18080.00
2019-05-28T11:57:08.876Z,17920.00
2019-05-28T11:58:08.859Z,17536.00
2019-05-28T11:59:08.842Z,17088.00
2019-05-28T12:00:08.822Z,16384.00
2019-05-28T12:01:08.802Z,15328.00
2019-05-28T12:02:08.782Z,15036.00
2019-05-28T12:03:08.762Z,14732.00
2019-05-28T12:04:08.744Z,15208.00
2019-05-28T12:05:08.730Z,16512.00
2019-05-28T12:06:08.707Z,16576.00
2019-05-28T12:07:22.891Z,16704.00
2019-05-28T12:08:08.669Z,17216.00
2019-05-28T12:09:08.649Z,17824.00
2019-05-28T12:10:08.631Z,18592.00
2019-05-28T12:11:08.615Z,19168.00
2019-05-28T12:12:08.621Z,19328.00
2019-05-28T12:13:10.878Z,19584.00
2019-05-28T12:14:08.556Z,19616.00
2019-05-28T12:15:08.537Z,18592.00
2019-05-28T12:16:08.553Z,17408.00
2019-05-28T12:17:08.516Z,16176.00
2019-05-28T12:18:08.512Z,16144.00
2019-05-28T12:19:08.467Z,16108.00
2019-05-28T12:20:08.446Z,15684.00
2019-05-28T12:21:08.467Z,15168.00
2019-05-28T12:22:08.452Z,14716.00
2019-05-28T12:23:11.518Z,14424.00